METAR AND TAF INFORMATION
METAR FOR YPTN
ADDS - METARS form results

(1521 UTC 19 December 2018)
Data provider http://aviationweather.gov/metar/data/
 
METAR text: YPTN 191500Z AUTO 31005KT 9999 // NCD 29/25 Q1007
Conditions at: YPTN (KATHERINE/TINDAL, AU) observed 1500 UTC 19 December 2018
Temperature: 29.0°C (84°F)
Dewpoint: 25.0°C (77°F) [RH = 79%]
Pressure (altimeter): 29.73 inches Hg (1007.0 mb)
Winds: from the NW (310 degrees) at 6 MPH (5 knots; 2.6 m/s)
Visibility: 6 or more miles (10+ km)
Ceiling: at least 12,000 feet AGL
Clouds: sky clear below 12,000 feet AGL
Weather: no significant weather observed at this time

METAR text: YPTN 191430Z AUTO 34002KT 9999 // NCD 30/25 Q1007
Conditions at: YPTN (KATHERINE/TINDAL, AU) observed 1430 UTC 19 December 2018
Temperature: 30.0°C (86°F)
Dewpoint: 25.0°C (77°F) [RH = 75%]
Pressure (altimeter): 29.73 inches Hg (1007.0 mb)
Winds: from the NNW (340 degrees) at 2 MPH (2 knots; 1.0 m/s)
Visibility: 6 or more miles (10+ km)
Ceiling: at least 12,000 feet AGL
Clouds: sky clear below 12,000 feet AGL
Weather: no significant weather observed at this time

Forecast for: AMD
Text: TAF AMD YPTN 191433Z 1914/2012 30005KT CAVOK
Forecast period: 1400 UTC 19 December 2018 to 0700 UTC 20 December 2018
Forecast type: FROM: standard forecast or significant change
Winds: from the WNW (300 degrees) at 6 MPH (5 knots; 2.6 m/s)
Visibility: 6 or more miles 10+ km)
Ceiling: unknown
Clouds: missing
Weather: NSW  (no significant weather)
Text: FM200700 05006KT CAVOK
Forecast period: 0700 to 1200 UTC 20 December 2018
Forecast type: FROM: standard forecast or significant change
Winds: from the NE (50 degrees) at 7 MPH (6 knots; 3.1 m/s)
Visibility: 6 or more miles 10+ km)
Ceiling: unknown
Clouds: missing
Weather: NSW  (no significant weather)
Text: PROB30
Forecast period: 0600 to 1200 UTC 20 December 2018
Forecast type: TEMPORARY: The following changes expected for less than half the time period
Winds: variable direction winds at 29 MPH (25 knots; 12.9 m/s)
gusting to 34 MPH (30 knots; 15.4 m/s)
Visibility: 0.62 miles (1.00 km)
Ceiling: 1000 feet AGL
Clouds: broken clouds at 1000 feet AGL
scattered clouds at 2000 feet AGL
Weather: TSRA  (rain associated with thunderstorm(s))

 AIRPORT MAP

 RUNWAY INFORMATION
Runway 14 Runway length 9003 ft Runway width 150 ft
Runway elevation 428 ft Runway displaced threshold 0 ft Runway heading 139
Runway 32 Runway length 9003 ft Runway width 150 ft
Runway elevation 443 ft Runway displaced threshold 0 ft Runway heading 319

 AIRPORT FREQUENCIES
Type APP Name APP Frequency 120.95 MHZ
Type ATIS Name ATIS Frequency 112.3 MHZ
Type CLD Name CLNC DEL Frequency 128.1 MHZ
Type CTAF Name CTAF Frequency 119.7 MHZ
Type FSS Name BRISBANE C Frequency 122.6 MHZ
Type GND Name GND Frequency 135.85 MHZ
Type TWR Name TWR Frequency 119.7 MHZ

 AIRPORT NEAR NAVIGATION AIDS
Type TACAN Name Tindal Frequency 112300 KHZ
Type VOR Name Tindal Frequency 112300 KHZ
Type NDB Name Tindal Frequency 356 KHZ